Time;durP1;ratioP1;P1;durP2;ratioP2;P2;SDS_P1;SDS_P2;PMS_P1;PMS_P2;Temp;Humidity;BMP_temperature;BMP_pressure;BME280_temperature;BME280_humidity;BME280_pressure;Samples;Min_cycle;Max_cycle;Signal;HPM_P1;HPM_P2
2023/06/25 00:01:47;;;;;;;;;;;22.80;69.30;;;;;;5110136;28;19918;-70
2023/06/25 00:04:13;;;;;;;;;;;22.70;69.30;;;;;;5109002;28;19965;-70
2023/06/25 00:06:38;;;;;;;;;;;22.70;69.50;;;;;;5102139;28;20508;-70
2023/06/25 00:09:04;;;;;;;;;;;22.70;69.70;;;;;;5088878;28;19919;-70
2023/06/25 00:11:29;;;;;;;;;;;22.60;69.60;;;;;;5090633;28;19915;-70
2023/06/25 00:13:55;;;;;;;;;;;22.60;69.60;;;;;;5090205;28;20018;-70
2023/06/25 00:16:20;;;;;;;;;;;22.60;69.90;;;;;;5107244;28;20256;-70
2023/06/25 00:18:47;;;;;;;;;;;22.60;69.80;;;;;;5109102;28;19907;-70
2023/06/25 00:21:12;;;;;;;;;;;22.50;69.90;;;;;;5110869;27;19919;-70
2023/06/25 00:23:38;;;;;;;;;;;22.50;70.00;;;;;;5110447;28;20252;-70
2023/06/25 00:26:04;;;;;;;;;;;22.50;70.00;;;;;;5110315;27;19947;-70
2023/06/25 00:28:29;;;;;;;;;;;22.50;70.10;;;;;;5108796;28;19916;-70
2023/06/25 00:30:55;;;;;;;;;;;22.40;70.10;;;;;;5110510;28;19919;-70
2023/06/25 00:33:20;;;;;;;;;;;22.40;70.10;;;;;;5108695;28;19919;-70
2023/06/25 00:35:55;;;;;;;;;;;22.30;70.30;;;;;;5110147;28;20272;-70
2023/06/25 00:38:20;;;;;;;;;;;22.30;70.20;;;;;;5110249;28;19920;-70
2023/06/25 00:40:46;;;;;;;;;;;22.30;70.50;;;;;;5110223;28;19912;-70
2023/06/25 00:43:15;;;;;;;;;;;22.30;70.50;;;;;;5109192;28;19916;-70
2023/06/25 00:45:40;;;;;;;;;;;22.20;70.40;;;;;;5109013;28;19951;-70
2023/06/25 00:48:06;;;;;;;;;;;22.20;70.50;;;;;;5109880;28;19970;-70
2023/06/25 00:50:31;;;;;;;;;;;22.20;70.80;;;;;;5110064;28;19912;-70
2023/06/25 00:52:57;;;;;;;;;;;22.10;70.60;;;;;;5109782;28;19912;-70
2023/06/25 00:55:23;;;;;;;;;;;22.10;70.60;;;;;;5109675;28;19908;-70
2023/06/25 00:57:51;;;;;;;;;;;22.10;70.90;;;;;;5109818;28;19938;-70
2023/06/25 01:00:18;;;;;;;;;;;22.10;70.80;;;;;;5108634;28;19911;-69
2023/06/25 01:03:03;;;;;;;;;;;22.00;71.00;;;;;;5109795;28;19919;-70
2023/06/25 01:05:38;;;;;;;;;;;22.00;70.90;;;;;;5109542;28;19916;-70
2023/06/25 01:08:08;;;;;;;;;;;22.00;71.10;;;;;;5109555;28;19958;-70
2023/06/25 01:10:34;;;;;;;;;;;22.00;71.20;;;;;;5108367;28;19947;-69
2023/06/25 01:13:01;;;;;;;;;;;21.90;71.10;;;;;;5109454;27;19915;-70
2023/06/25 01:15:26;;;;;;;;;;;21.90;71.90;;;;;;5106913;28;19907;-70
2023/06/25 01:17:53;;;;;;;;;;;21.90;71.30;;;;;;5108846;28;19918;-70
2023/06/25 01:20:22;;;;;;;;;;;21.80;71.30;;;;;;5109536;28;19920;-70
2023/06/25 01:22:48;;;;;;;;;;;21.80;71.40;;;;;;5109439;28;19919;-70
2023/06/25 01:25:14;;;;;;;;;;;21.80;71.60;;;;;;5109326;28;19912;-70
2023/06/25 01:27:40;;;;;;;;;;;21.80;71.40;;;;;;5109062;28;20043;-70
2023/06/25 01:30:06;;;;;;;;;;;21.80;71.70;;;;;;5109217;28;19915;-71
2023/06/25 01:32:31;;;;;;;;;;;21.70;71.70;;;;;;5106853;28;20310;-70
2023/06/25 01:34:57;;;;;;;;;;;21.70;71.60;;;;;;5109097;28;19912;-70
2023/06/25 01:37:22;;;;;;;;;;;21.70;71.60;;;;;;5109282;27;19919;-70
2023/06/25 01:39:49;;;;;;;;;;;21.60;71.90;;;;;;5109202;28;19911;-70
2023/06/25 01:42:15;;;;;;;;;;;21.60;71.70;;;;;;5108979;28;20351;-70
2023/06/25 01:44:41;;;;;;;;;;;21.60;72.00;;;;;;5108824;28;19912;-70
2023/06/25 01:47:06;;;;;;;;;;;21.60;71.70;;;;;;5108955;28;19961;-70
2023/06/25 01:49:32;;;;;;;;;;;21.60;72.10;;;;;;5108962;28;19911;-70
2023/06/25 01:51:57;;;;;;;;;;;21.50;72.00;;;;;;5108777;28;19912;-70
2023/06/25 01:54:23;;;;;;;;;;;21.50;72.10;;;;;;5108975;28;20602;-70
2023/06/25 01:56:48;;;;;;;;;;;21.50;72.40;;;;;;5110765;27;19985;-70
2023/06/25 01:59:13;;;;;;;;;;;21.40;72.30;;;;;;5129401;27;20268;-70
2023/06/25 02:01:40;;;;;;;;;;;21.40;72.20;;;;;;5129426;27;19947;-70
2023/06/25 02:04:05;;;;;;;;;;;21.40;72.40;;;;;;5092932;27;19919;-70
2023/06/25 02:06:31;;;;;;;;;;;21.40;72.40;;;;;;5106969;28;19911;-70
2023/06/25 02:08:56;;;;;;;;;;;21.40;72.90;;;;;;5109001;28;19973;-70
2023/06/25 02:11:22;;;;;;;;;;;21.30;72.60;;;;;;5108854;28;19912;-70
2023/06/25 02:13:47;;;;;;;;;;;21.30;72.70;;;;;;5108753;28;19950;-70
2023/06/25 02:16:13;;;;;;;;;;;21.30;72.70;;;;;;5108699;28;19908;-70
2023/06/25 02:18:40;;;;;;;;;;;21.30;72.90;;;;;;5108700;28;19912;-70
2023/06/25 02:21:05;;;;;;;;;;;21.20;73.00;;;;;;5107471;28;19916;-69
2023/06/25 02:23:31;;;;;;;;;;;21.20;73.00;;;;;;5108850;28;19920;-70
2023/06/25 02:25:56;;;;;;;;;;;21.20;73.00;;;;;;5108551;28;20064;-70
2023/06/25 02:28:22;;;;;;;;;;;21.20;73.10;;;;;;5108372;28;19959;-70
2023/06/25 02:30:47;;;;;;;;;;;21.20;73.20;;;;;;5108747;28;19912;-70
2023/06/25 02:33:13;;;;;;;;;;;21.10;73.00;;;;;;5108723;28;20625;-70
2023/06/25 02:35:38;;;;;;;;;;;21.20;73.20;;;;;;5108586;28;19947;-69
2023/06/25 02:38:04;;;;;;;;;;;21.10;73.50;;;;;;5108724;28;19912;-70
2023/06/25 02:40:30;;;;;;;;;;;21.10;73.90;;;;;;5108894;28;20466;-70
2023/06/25 02:42:56;;;;;;;;;;;21.00;73.70;;;;;;5108208;28;19908;-69
2023/06/25 02:45:21;;;;;;;;;;;21.00;73.40;;;;;;5108196;28;19955;-70
2023/06/25 02:47:47;;;;;;;;;;;21.00;73.40;;;;;;5108478;28;19943;-70
2023/06/25 02:50:12;;;;;;;;;;;21.00;73.90;;;;;;5108602;28;19999;-70
2023/06/25 02:52:38;;;;;;;;;;;20.90;73.70;;;;;;5108720;28;20082;-70
2023/06/25 02:55:04;;;;;;;;;;;20.90;74.10;;;;;;5108700;28;19939;-70
2023/06/25 02:57:29;;;;;;;;;;;20.90;73.90;;;;;;5108349;28;20403;-70
2023/06/25 02:59:55;;;;;;;;;;;20.90;73.80;;;;;;5108318;28;19919;-69
2023/06/25 03:02:21;;;;;;;;;;;20.90;73.90;;;;;;5108652;28;19907;-70
2023/06/25 03:04:46;;;;;;;;;;;20.80;73.60;;;;;;5108416;28;19919;-70
2023/06/25 03:07:12;;;;;;;;;;;20.80;73.60;;;;;;5108332;28;19923;-69
2023/06/25 03:09:38;;;;;;;;;;;20.80;74.20;;;;;;5111237;28;20459;-70
2023/06/25 03:12:03;;;;;;;;;;;20.80;73.80;;;;;;5112436;28;19955;-70
2023/06/25 03:14:29;;;;;;;;;;;20.80;73.90;;;;;;5110821;28;19950;-70
2023/06/25 03:16:54;;;;;;;;;;;20.80;74.10;;;;;;5111845;28;19959;-69
2023/06/25 03:19:20;;;;;;;;;;;20.70;74.30;;;;;;5111939;28;19994;-70
2023/06/25 03:21:45;;;;;;;;;;;20.70;74.40;;;;;;5112086;28;20353;-69
2023/06/25 03:24:11;;;;;;;;;;;20.70;74.10;;;;;;5112081;28;19931;-70
2023/06/25 03:26:36;;;;;;;;;;;20.70;74.20;;;;;;5111738;28;19954;-69
2023/06/25 03:29:02;;;;;;;;;;;20.70;74.50;;;;;;5111930;28;20272;-69
2023/06/25 03:31:27;;;;;;;;;;;20.60;74.50;;;;;;5111866;28;19950;-69
2023/06/25 03:33:53;;;;;;;;;;;20.60;74.70;;;;;;5111420;28;19919;-69
2023/06/25 03:36:19;;;;;;;;;;;20.60;74.60;;;;;;5111476;28;19919;-69
2023/06/25 03:38:44;;;;;;;;;;;20.60;75.40;;;;;;5111749;27;19919;-69
2023/06/25 03:41:10;;;;;;;;;;;20.60;74.90;;;;;;5111529;28;19912;-69
2023/06/25 03:43:35;;;;;;;;;;;20.60;74.80;;;;;;5108896;28;19946;-70
2023/06/25 03:46:01;;;;;;;;;;;20.50;74.80;;;;;;5110845;28;20010;-69
2023/06/25 03:48:26;;;;;;;;;;;20.50;74.70;;;;;;5111322;28;19922;-69
2023/06/25 03:50:52;;;;;;;;;;;20.50;74.90;;;;;;5111537;28;19915;-69
2023/06/25 03:53:17;;;;;;;;;;;20.50;75.10;;;;;;5111391;28;20380;-69
2023/06/25 03:55:43;;;;;;;;;;;20.50;75.20;;;;;;5119404;27;20053;-69
2023/06/25 03:58:08;;;;;;;;;;;20.40;75.00;;;;;;5111129;28;19916;-70
2023/06/25 04:00:34;;;;;;;;;;;20.50;75.10;;;;;;5111122;28;19916;-69
2023/06/25 04:02:59;;;;;;;;;;;20.40;75.00;;;;;;5111005;28;19964;-69
2023/06/25 04:05:25;;;;;;;;;;;20.40;75.10;;;;;;5110851;28;19916;-70
2023/06/25 04:07:50;;;;;;;;;;;20.40;75.30;;;;;;5111059;28;19935;-70
2023/06/25 04:10:16;;;;;;;;;;;20.40;75.50;;;;;;5109746;28;19960;-70
2023/06/25 04:12:41;;;;;;;;;;;20.40;75.50;;;;;;5111074;28;19924;-69
2023/06/25 04:15:07;;;;;;;;;;;20.40;75.40;;;;;;5109668;27;20352;-69
2023/06/25 04:17:33;;;;;;;;;;;20.40;75.60;;;;;;5110925;28;19911;-69
2023/06/25 04:19:58;;;;;;;;;;;20.30;75.60;;;;;;5108335;28;19923;-70
2023/06/25 04:22:24;;;;;;;;;;;20.30;75.50;;;;;;5110757;28;19964;-69
2023/06/25 04:24:49;;;;;;;;;;;20.30;75.90;;;;;;5110847;28;19912;-69
2023/06/25 04:27:15;;;;;;;;;;;20.30;75.60;;;;;;5110495;28;20261;-70
2023/06/25 04:29:41;;;;;;;;;;;20.30;75.90;;;;;;5110739;28;19907;-70
2023/06/25 04:32:06;;;;;;;;;;;20.30;75.70;;;;;;5110754;28;19912;-69
2023/06/25 04:34:32;;;;;;;;;;;20.30;76.10;;;;;;5110522;28;19923;-69
2023/06/25 04:36:57;;;;;;;;;;;20.30;76.10;;;;;;5115878;27;20421;-69
2023/06/25 04:39:23;;;;;;;;;;;20.30;76.00;;;;;;5110116;28;19924;-70
2023/06/25 04:41:48;;;;;;;;;;;20.30;76.40;;;;;;5108459;28;20451;-69
2023/06/25 04:44:14;;;;;;;;;;;20.30;75.90;;;;;;5108931;28;19968;-70
2023/06/25 04:46:39;;;;;;;;;;;20.30;76.10;;;;;;5108370;28;19915;-69
2023/06/25 04:49:05;;;;;;;;;;;20.30;76.20;;;;;;5109680;28;20255;-70
2023/06/25 04:51:30;;;;;;;;;;;20.30;76.00;;;;;;5109593;28;19912;-69
2023/06/25 04:53:56;;;;;;;;;;;20.20;76.50;;;;;;5108121;28;19923;-69
2023/06/25 04:56:21;;;;;;;;;;;20.20;76.40;;;;;;5109395;28;20734;-69
2023/06/25 04:58:47;;;;;;;;;;;20.20;76.20;;;;;;5109819;28;19912;-69
2023/06/25 05:01:12;;;;;;;;;;;20.20;76.10;;;;;;5110120;27;19912;-69
2023/06/25 05:03:38;;;;;;;;;;;20.20;76.30;;;;;;5105251;27;19915;-69
2023/06/25 05:06:04;;;;;;;;;;;20.30;76.30;;;;;;5107527;28;20010;-69
2023/06/25 05:08:29;;;;;;;;;;;20.30;76.40;;;;;;5108853;28;20011;-70
2023/06/25 05:10:55;;;;;;;;;;;20.30;76.40;;;;;;5109546;28;19919;-69
2023/06/25 05:13:20;;;;;;;;;;;20.30;76.30;;;;;;5107583;28;19912;-70
2023/06/25 05:15:46;;;;;;;;;;;20.30;76.50;;;;;;5109396;28;20256;-69
2023/06/25 05:18:12;;;;;;;;;;;20.30;76.50;;;;;;5109696;28;20083;-70
2023/06/25 05:20:38;;;;;;;;;;;20.30;76.50;;;;;;5109754;28;19908;-69
2023/06/25 05:23:04;;;;;;;;;;;20.30;76.60;;;;;;5109496;28;19919;-70
2023/06/25 05:25:30;;;;;;;;;;;20.30;76.50;;;;;;5109372;28;19912;-69
2023/06/25 05:27:56;;;;;;;;;;;20.30;76.60;;;;;;5109358;28;19918;-69
2023/06/25 05:30:21;;;;;;;;;;;20.30;77.20;;;;;;5109530;28;19912;-70
2023/06/25 05:32:47;;;;;;;;;;;20.30;76.60;;;;;;5109362;28;19912;-69
2023/06/25 05:35:12;;;;;;;;;;;20.30;76.50;;;;;;5109519;28;19973;-69
2023/06/25 05:37:38;;;;;;;;;;;20.30;76.60;;;;;;5109253;28;20306;-69
2023/06/25 05:40:03;;;;;;;;;;;20.30;76.60;;;;;;5109235;28;20089;-69
2023/06/25 05:42:29;;;;;;;;;;;20.30;76.70;;;;;;5108992;28;19923;-69
2023/06/25 05:44:54;;;;;;;;;;;20.30;76.70;;;;;;5108766;28;19907;-70
2023/06/25 05:47:20;;;;;;;;;;;20.30;76.70;;;;;;5108933;28;20268;-69
2023/06/25 05:49:45;;;;;;;;;;;20.40;76.70;;;;;;5109244;28;20006;-69
2023/06/25 05:52:11;;;;;;;;;;;20.40;76.80;;;;;;5109396;28;20268;-70
2023/06/25 05:54:36;;;;;;;;;;;20.30;76.70;;;;;;5109303;28;20262;-70
2023/06/25 05:57:02;;;;;;;;;;;20.30;76.80;;;;;;5108502;28;20265;-69
2023/06/25 05:59:27;;;;;;;;;;;20.40;76.80;;;;;;5123776;27;20255;-69
2023/06/25 06:01:53;;;;;;;;;;;20.40;76.70;;;;;;5129792;27;19919;-69
2023/06/25 06:04:18;;;;;;;;;;;20.40;76.60;;;;;;5089767;27;20381;-69
2023/06/25 06:06:44;;;;;;;;;;;20.40;76.60;;;;;;5108430;28;19958;-70
2023/06/25 06:09:09;;;;;;;;;;;20.50;76.60;;;;;;5108882;28;19914;-69
2023/06/25 06:11:35;;;;;;;;;;;20.50;76.50;;;;;;5109183;28;19915;-69
2023/06/25 06:14:00;;;;;;;;;;;20.50;76.50;;;;;;5108888;28;20303;-70
2023/06/25 06:16:26;;;;;;;;;;;20.50;76.40;;;;;;5108371;28;19912;-69
2023/06/25 06:18:51;;;;;;;;;;;20.50;76.30;;;;;;5108766;28;20271;-69
2023/06/25 06:21:17;;;;;;;;;;;20.50;76.30;;;;;;5109219;28;19912;-69
2023/06/25 06:23:42;;;;;;;;;;;20.60;76.30;;;;;;5109064;28;19927;-69
2023/06/25 06:26:08;;;;;;;;;;;20.60;76.20;;;;;;5107010;28;20561;-69
2023/06/25 06:28:33;;;;;;;;;;;20.60;76.20;;;;;;5108568;28;19916;-69
2023/06/25 06:30:59;;;;;;;;;;;20.60;76.70;;;;;;5108646;28;20569;-69
2023/06/25 06:33:24;;;;;;;;;;;20.60;76.20;;;;;;5094804;28;19919;-69
2023/06/25 06:35:50;;;;;;;;;;;20.60;76.40;;;;;;5088228;28;19912;-69
2023/06/25 06:38:15;;;;;;;;;;;20.60;76.00;;;;;;5088362;28;20325;-69
2023/06/25 06:40:41;;;;;;;;;;;20.70;76.40;;;;;;5088217;28;19912;-70
2023/06/25 06:43:06;;;;;;;;;;;20.70;76.40;;;;;;5097495;28;19998;-69
2023/06/25 06:45:32;;;;;;;;;;;20.70;75.60;;;;;;5113727;27;19938;-70
2023/06/25 06:47:57;;;;;;;;;;;20.80;75.70;;;;;;5111871;28;19938;-69
2023/06/25 06:50:23;;;;;;;;;;;20.70;75.60;;;;;;5112002;28;19920;-69
2023/06/25 06:52:48;;;;;;;;;;;20.80;75.60;;;;;;5112271;28;19923;-69
2023/06/25 06:55:14;;;;;;;;;;;20.80;75.40;;;;;;5111941;28;19915;-69
2023/06/25 06:57:39;;;;;;;;;;;20.80;75.40;;;;;;5111517;28;19912;-69
2023/06/25 07:00:05;;;;;;;;;;;20.80;76.20;;;;;;5109822;28;19943;-69
2023/06/25 07:02:30;;;;;;;;;;;20.90;75.10;;;;;;5110528;28;19908;-69
2023/06/25 07:04:56;;;;;;;;;;;20.90;75.20;;;;;;5111558;28;19912;-69
2023/06/25 07:07:22;;;;;;;;;;;20.90;75.10;;;;;;5111639;28;20002;-69
2023/06/25 07:09:51;;;;;;;;;;;20.90;75.30;;;;;;5111266;28;19919;-69
2023/06/25 07:12:17;;;;;;;;;;;20.90;74.90;;;;;;5111162;28;20282;-69
2023/06/25 07:14:42;;;;;;;;;;;21.00;75.20;;;;;;5111018;28;19918;-69
2023/06/25 07:17:08;;;;;;;;;;;21.00;74.90;;;;;;5105880;27;19919;-69
2023/06/25 07:19:33;;;;;;;;;;;21.00;75.20;;;;;;5110292;28;19912;-69
2023/06/25 07:21:59;;;;;;;;;;;21.10;75.30;;;;;;5110960;28;19916;-69
2023/06/25 07:24:24;;;;;;;;;;;21.10;74.80;;;;;;5111094;28;20010;-69
2023/06/25 07:26:50;;;;;;;;;;;21.10;74.80;;;;;;5110904;28;19954;-69
2023/06/25 07:29:15;;;;;;;;;;;21.20;74.60;;;;;;5110857;28;19918;-69
2023/06/25 07:31:41;;;;;;;;;;;21.20;74.50;;;;;;5110823;28;19990;-69
2023/06/25 07:34:06;;;;;;;;;;;21.20;74.60;;;;;;5110689;28;19955;-69
2023/06/25 07:36:32;;;;;;;;;;;21.20;74.50;;;;;;5110665;28;19927;-70
2023/06/25 07:38:58;;;;;;;;;;;21.20;74.60;;;;;;5110754;28;19911;-69
2023/06/25 07:41:24;;;;;;;;;;;21.30;74.60;;;;;;5108769;28;19999;-69
2023/06/25 07:43:49;;;;;;;;;;;21.30;74.80;;;;;;5109543;28;20014;-69
2023/06/25 07:46:15;;;;;;;;;;;21.30;74.20;;;;;;5110691;27;19969;-69
2023/06/25 07:48:40;;;;;;;;;;;21.40;74.50;;;;;;5110621;28;19969;-69
2023/06/25 07:51:06;;;;;;;;;;;21.40;74.30;;;;;;5110660;28;19908;-69
2023/06/25 07:53:31;;;;;;;;;;;21.40;74.60;;;;;;5110824;28;19912;-69
2023/06/25 07:55:57;;;;;;;;;;;21.50;74.20;;;;;;5110348;28;19911;-69
2023/06/25 07:58:22;;;;;;;;;;;21.50;74.00;;;;;;5110065;28;19912;-69
2023/06/25 08:00:48;;;;;;;;;;;21.50;74.20;;;;;;5110225;28;19916;-69
2023/06/25 08:03:13;;;;;;;;;;;21.60;73.90;;;;;;5110025;28;19919;-69
2023/06/25 08:05:39;;;;;;;;;;;21.60;74.10;;;;;;5110187;27;19916;-69
2023/06/25 08:08:04;;;;;;;;;;;21.60;73.80;;;;;;5130886;27;19915;-69
2023/06/25 08:10:30;;;;;;;;;;;21.70;73.90;;;;;;5130743;27;19943;-69
2023/06/25 08:12:55;;;;;;;;;;;21.70;73.60;;;;;;5130917;27;19911;-69
2023/06/25 08:15:21;;;;;;;;;;;21.80;73.70;;;;;;5130552;27;19959;-69
2023/06/25 08:17:47;;;;;;;;;;;21.80;73.60;;;;;;5115291;27;19908;-69
2023/06/25 08:20:12;;;;;;;;;;;21.80;73.50;;;;;;5110636;28;19918;-69
2023/06/25 08:22:37;;;;;;;;;;;21.80;73.60;;;;;;5110192;28;19916;-69
2023/06/25 08:25:10;;;;;;;;;;;21.90;73.40;;;;;;5110018;28;19912;-69
2023/06/25 08:27:35;;;;;;;;;;;21.90;73.30;;;;;;5109701;28;20345;-69
2023/06/25 08:30:01;;;;;;;;;;;22.00;73.10;;;;;;5109666;28;19912;-70
2023/06/25 08:32:26;;;;;;;;;;;22.00;73.50;;;;;;5109845;28;20364;-69
2023/06/25 08:34:52;;;;;;;;;;;22.10;73.10;;;;;;5109398;28;19969;-69
2023/06/25 08:37:17;;;;;;;;;;;22.10;73.00;;;;;;5109443;28;19912;-70
2023/06/25 08:39:43;;;;;;;;;;;22.10;72.80;;;;;;5108943;28;20010;-69
2023/06/25 08:42:08;;;;;;;;;;;22.20;72.80;;;;;;5108613;28;19916;-69
2023/06/25 08:44:34;;;;;;;;;;;22.20;72.70;;;;;;5108488;28;20277;-70
2023/06/25 08:46:59;;;;;;;;;;;22.20;72.50;;;;;;5107940;28;19973;-70
2023/06/25 08:49:27;;;;;;;;;;;22.30;72.50;;;;;;5109325;28;20030;-70
2023/06/25 08:51:54;;;;;;;;;;;22.30;72.50;;;;;;5109528;28;19957;-70
2023/06/25 08:54:20;;;;;;;;;;;22.40;72.60;;;;;;5109715;28;20002;-69
2023/06/25 08:56:46;;;;;;;;;;;22.40;72.30;;;;;;5109380;28;20328;-69
2023/06/25 08:59:11;;;;;;;;;;;22.40;72.20;;;;;;5109488;28;19915;-70
2023/06/25 09:01:36;;;;;;;;;;;22.50;72.10;;;;;;5109437;28;19990;-69
2023/06/25 09:04:02;;;;;;;;;;;22.60;72.10;;;;;;5108903;28;19923;-69
2023/06/25 09:06:27;;;;;;;;;;;22.60;72.20;;;;;;5108276;28;20556;-69
2023/06/25 09:08:53;;;;;;;;;;;22.60;71.90;;;;;;5108886;28;19916;-70
2023/06/25 09:11:18;;;;;;;;;;;22.70;71.90;;;;;;5109319;28;19922;-69
2023/06/25 09:13:44;;;;;;;;;;;22.70;71.70;;;;;;5108933;28;20006;-69
2023/06/25 09:16:10;;;;;;;;;;;22.70;71.70;;;;;;5108606;28;20502;-70
2023/06/25 09:18:36;;;;;;;;;;;22.80;71.60;;;;;;5108596;28;19908;-70
2023/06/25 09:21:02;;;;;;;;;;;22.80;71.40;;;;;;5109051;28;19908;-69
2023/06/25 09:23:28;;;;;;;;;;;22.90;71.30;;;;;;5108702;28;19919;-70
2023/06/25 09:25:53;;;;;;;;;;;22.90;71.20;;;;;;5108657;28;20638;-69
2023/06/25 09:28:19;;;;;;;;;;;23.00;71.00;;;;;;5108514;28;19919;-70
2023/06/25 09:30:45;;;;;;;;;;;23.00;71.00;;;;;;5107140;27;19924;-69
2023/06/25 09:33:11;;;;;;;;;;;23.10;70.90;;;;;;5112261;27;20431;-70
2023/06/25 09:35:36;;;;;;;;;;;23.10;70.80;;;;;;5117516;27;20302;-69
2023/06/25 09:38:02;;;;;;;;;;;23.20;70.90;;;;;;5129716;27;19908;-70
2023/06/25 09:40:28;;;;;;;;;;;23.20;70.80;;;;;;5129858;27;19911;-70
2023/06/25 09:42:54;;;;;;;;;;;23.20;70.70;;;;;;5119794;27;19918;-70
2023/06/25 09:45:21;;;;;;;;;;;23.30;70.60;;;;;;5108877;28;19950;-70
2023/06/25 09:47:47;;;;;;;;;;;23.40;70.50;;;;;;5107626;28;20322;-70
2023/06/25 09:50:16;;;;;;;;;;;23.40;70.50;;;;;;5109231;28;19920;-70
2023/06/25 09:52:45;;;;;;;;;;;23.50;70.30;;;;;;5109421;28;20372;-70
2023/06/25 09:55:11;;;;;;;;;;;23.50;70.20;;;;;;5108882;28;20480;-70
2023/06/25 09:57:37;;;;;;;;;;;23.60;70.00;;;;;;5107909;28;19912;-70
2023/06/25 10:00:04;;;;;;;;;;;23.70;70.00;;;;;;5108968;28;20629;-70
2023/06/25 10:02:30;;;;;;;;;;;23.70;70.00;;;;;;5109515;27;19961;-70
2023/06/25 10:04:56;;;;;;;;;;;23.70;70.00;;;;;;5120554;27;19980;-70
2023/06/25 10:07:23;;;;;;;;;;;23.80;69.90;;;;;;5107535;28;20017;-70
2023/06/25 10:09:53;;;;;;;;;;;23.90;69.70;;;;;;5107541;28;19954;-70
2023/06/25 10:12:18;;;;;;;;;;;23.90;69.70;;;;;;5107958;28;19911;-70
2023/06/25 10:14:44;;;;;;;;;;;24.00;69.60;;;;;;5107692;28;20539;-71
2023/06/25 10:17:09;;;;;;;;;;;24.10;69.70;;;;;;5107548;28;19916;-71
2023/06/25 10:19:35;;;;;;;;;;;24.10;69.80;;;;;;5110747;28;19916;-70
2023/06/25 10:22:07;;;;;;;;;;;24.10;69.60;;;;;;5112241;28;19912;-71
2023/06/25 10:24:40;;;;;;;;;;;24.20;69.90;;;;;;5112399;28;19916;-70
2023/06/25 10:27:06;;;;;;;;;;;24.30;69.90;;;;;;5111803;27;20472;-71
2023/06/25 10:29:41;;;;;;;;;;;24.40;70.00;;;;;;5112410;28;19995;-71
2023/06/25 10:32:06;;;;;;;;;;;24.50;69.50;;;;;;5112023;28;20280;-70
2023/06/25 10:34:35;;;;;;;;;;;24.50;69.50;;;;;;5111672;28;19908;-71
2023/06/25 10:37:03;;;;;;;;;;;24.60;70.10;;;;;;5111619;28;19907;-71
2023/06/25 10:39:38;;;;;;;;;;;24.70;69.30;;;;;;5111862;28;19911;-70
2023/06/25 10:42:04;;;;;;;;;;;24.80;70.20;;;;;;5111590;28;19947;-70
2023/06/25 10:44:29;;;;;;;;;;;24.90;69.90;;;;;;5111357;28;19951;-70
2023/06/25 10:47:08;;;;;;;;;;;25.00;70.00;;;;;;5118477;27;19935;-70
2023/06/25 10:49:34;;;;;;;;;;;25.10;70.00;;;;;;5125205;27;19916;-70
2023/06/25 10:52:00;;;;;;;;;;;25.20;70.20;;;;;;5111887;28;19912;-70
2023/06/25 10:54:26;;;;;;;;;;;25.30;70.40;;;;;;5111938;28;19911;-71
2023/06/25 10:57:04;;;;;;;;;;;25.40;70.30;;;;;;5111772;28;19943;-70
2023/06/25 10:59:29;;;;;;;;;;;25.50;70.40;;;;;;5111784;28;19961;-70
2023/06/25 11:01:55;;;;;;;;;;;25.70;70.40;;;;;;5111829;28;19911;-71
2023/06/25 11:04:20;;;;;;;;;;;25.80;70.50;;;;;;5111300;28;19908;-70
2023/06/25 11:06:46;;;;;;;;;;;25.90;70.60;;;;;;5111504;28;20443;-70
2023/06/25 11:09:11;;;;;;;;;;;26.00;70.50;;;;;;5111804;28;19915;-71
2023/06/25 11:11:37;;;;;;;;;;;26.10;70.50;;;;;;5111530;28;19912;-71
2023/06/25 11:14:03;;;;;;;;;;;26.30;70.60;;;;;;5110027;28;19943;-71
2023/06/25 11:16:28;;;;;;;;;;;26.40;70.70;;;;;;5111324;28;19914;-71
2023/06/25 11:18:54;;;;;;;;;;;26.50;71.10;;;;;;5111284;28;20391;-71
2023/06/25 11:21:19;;;;;;;;;;;26.60;70.70;;;;;;5111439;28;19916;-70
2023/06/25 11:23:45;;;;;;;;;;;26.70;71.40;;;;;;5093374;28;19920;-70
2023/06/25 11:26:13;;;;;;;;;;;26.80;70.50;;;;;;5090429;28;19920;-70
2023/06/25 11:28:39;;;;;;;;;;;26.90;70.70;;;;;;5095626;28;19927;-70
2023/06/25 11:31:04;;;;;;;;;;;27.00;70.50;;;;;;5098187;27;19916;-70
2023/06/25 11:33:30;;;;;;;;;;;27.10;70.30;;;;;;5102013;27;20349;-70
2023/06/25 11:36:09;;;;;;;;;;;27.20;70.70;;;;;;5104434;28;20370;-71
2023/06/25 11:38:34;;;;;;;;;;;27.30;70.60;;;;;;5090845;28;20481;-70
2023/06/25 11:41:00;;;;;;;;;;;27.40;70.80;;;;;;5090634;28;19929;-70
2023/06/25 11:43:26;;;;;;;;;;;27.40;70.60;;;;;;5103843;28;19912;-70
2023/06/25 11:45:52;;;;;;;;;;;27.50;70.60;;;;;;5108018;28;19985;-70
2023/06/25 11:48:18;;;;;;;;;;;27.60;70.60;;;;;;5103861;27;19920;-70
2023/06/25 11:50:44;;;;;;;;;;;27.70;70.40;;;;;;5108270;28;19912;-70
2023/06/25 11:53:10;;;;;;;;;;;27.70;70.10;;;;;;5111056;28;19908;-70
2023/06/25 11:55:36;;;;;;;;;;;27.80;70.00;;;;;;5107940;28;19912;-70
2023/06/25 11:58:01;;;;;;;;;;;27.90;70.00;;;;;;5106253;28;19915;-70
2023/06/25 12:00:27;;;;;;;;;;;28.00;69.70;;;;;;5110266;28;20712;-70
2023/06/25 12:02:52;;;;;;;;;;;28.10;69.60;;;;;;5098861;27;19951;-70
2023/06/25 12:05:18;;;;;;;;;;;28.20;69.70;;;;;;5109147;27;20015;-70
2023/06/25 12:07:43;;;;;;;;;;;28.30;69.60;;;;;;5107741;28;19920;-70
2023/06/25 12:10:09;;;;;;;;;;;28.30;69.50;;;;;;5107766;28;21299;-70
2023/06/25 12:12:35;;;;;;;;;;;28.40;69.50;;;;;;5108573;28;19915;-70
2023/06/25 12:15:00;;;;;;;;;;;28.50;69.50;;;;;;5102251;27;19919;-70
2023/06/25 12:17:26;;;;;;;;;;;28.60;69.60;;;;;;5108665;27;19919;-70
2023/06/25 12:19:51;;;;;;;;;;;28.60;69.60;;;;;;5108563;28;19911;-70
2023/06/25 12:22:17;;;;;;;;;;;28.70;69.80;;;;;;5108393;28;19934;-70
2023/06/25 12:24:42;;;;;;;;;;;28.70;69.90;;;;;;5104906;27;20051;-70
2023/06/25 12:27:08;;;;;;;;;;;28.80;69.50;;;;;;5076830;27;19924;-71
2023/06/25 12:29:33;;;;;;;;;;;28.90;69.40;;;;;;5081085;27;19927;-71
2023/06/25 12:31:59;;;;;;;;;;;28.90;69.50;;;;;;5074082;27;20589;-70
2023/06/25 12:34:24;;;;;;;;;;;29.00;69.50;;;;;;5072286;27;20002;-70
2023/06/25 12:36:50;;;;;;;;;;;29.10;69.30;;;;;;5079525;27;19919;-72
2023/06/25 12:39:15;;;;;;;;;;;29.20;69.10;;;;;;5098727;27;19974;-70
2023/06/25 12:41:41;;;;;;;;;;;29.30;69.10;;;;;;5078786;27;19916;-71
2023/06/25 12:44:06;;;;;;;;;;;29.30;68.70;;;;;;5103631;27;20622;-71
2023/06/25 12:46:32;;;;;;;;;;;29.40;68.70;;;;;;5108535;28;19911;-71
2023/06/25 12:48:57;;;;;;;;;;;29.50;68.50;;;;;;5108715;28;19959;-72
2023/06/25 12:51:23;;;;;;;;;;;29.60;68.60;;;;;;5109370;28;20365;-72
2023/06/25 12:53:48;;;;;;;;;;;29.60;68.40;;;;;;5109795;28;19918;-72
2023/06/25 12:56:14;;;;;;;;;;;29.70;68.50;;;;;;5115094;27;19922;-72
2023/06/25 12:58:39;;;;;;;;;;;29.70;68.30;;;;;;5121862;27;19919;-72
2023/06/25 13:01:05;;;;;;;;;;;29.80;68.10;;;;;;5113419;27;19915;-72
2023/06/25 13:03:30;;;;;;;;;;;29.90;68.20;;;;;;5112082;27;19958;-71
2023/06/25 13:05:56;;;;;;;;;;;29.90;68.00;;;;;;5108648;28;20015;-72
2023/06/25 13:08:23;;;;;;;;;;;30.00;68.40;;;;;;5109234;28;19927;-71
2023/06/25 13:10:51;;;;;;;;;;;30.10;67.60;;;;;;5109854;28;19958;-71
2023/06/25 13:13:17;;;;;;;;;;;30.10;67.60;;;;;;5109795;28;19912;-72
2023/06/25 13:15:43;;;;;;;;;;;30.20;67.40;;;;;;5109346;28;19916;-71
2023/06/25 13:18:08;;;;;;;;;;;30.30;67.50;;;;;;5107292;28;19984;-72
2023/06/25 13:20:34;;;;;;;;;;;30.30;67.40;;;;;;5106811;28;20422;-71
2023/06/25 13:22:59;;;;;;;;;;;30.40;67.40;;;;;;5109500;28;19928;-71
2023/06/25 13:25:25;;;;;;;;;;;30.40;67.90;;;;;;5109390;28;19965;-72
2023/06/25 13:27:52;;;;;;;;;;;30.40;67.80;;;;;;5108409;28;20143;-71
2023/06/25 13:30:17;;;;;;;;;;;30.50;67.60;;;;;;5108123;28;19951;-71
2023/06/25 13:32:43;;;;;;;;;;;30.60;67.50;;;;;;5109500;28;20000;-71
2023/06/25 13:35:08;;;;;;;;;;;30.60;67.20;;;;;;5109293;28;19919;-71
2023/06/25 13:37:34;;;;;;;;;;;30.70;67.10;;;;;;5109478;28;19911;-71
2023/06/25 13:39:59;;;;;;;;;;;30.60;66.90;;;;;;5109396;28;19912;-71
2023/06/25 13:42:25;;;;;;;;;;;30.60;67.00;;;;;;5108911;28;19908;-72
2023/06/25 13:44:50;;;;;;;;;;;30.50;67.10;;;;;;5108710;28;20011;-71
2023/06/25 13:47:16;;;;;;;;;;;30.60;67.50;;;;;;5108825;28;19912;-71
2023/06/25 13:49:41;;;;;;;;;;;30.70;66.80;;;;;;5108603;28;19926;-72
2023/06/25 13:52:07;;;;;;;;;;;30.70;67.10;;;;;;5108961;28;19912;-71
2023/06/25 13:54:33;;;;;;;;;;;30.80;67.00;;;;;;5109110;28;20045;-71
2023/06/25 13:56:58;;;;;;;;;;;30.90;66.70;;;;;;5108543;28;20331;-72
2023/06/25 13:59:24;;;;;;;;;;;31.00;66.60;;;;;;5108918;28;19907;-71
2023/06/25 14:01:49;;;;;;;;;;;31.00;66.40;;;;;;5093589;28;19923;-71
2023/06/25 14:04:15;;;;;;;;;;;31.10;66.20;;;;;;5108010;28;19919;-72
2023/06/25 14:06:40;;;;;;;;;;;31.10;66.30;;;;;;5108644;28;20290;-71
2023/06/25 14:09:06;;;;;;;;;;;31.20;66.30;;;;;;5108760;28;19923;-72